Time;durP1;ratioP1;P1;durP2;ratioP2;P2;SDS_P1;SDS_P2;PMS_P1;PMS_P2;Temp;Humidity;BMP_temperature;BMP_pressure;BME280_temperature;BME280_humidity;BME280_pressure;Samples;Min_cycle;Max_cycle;Signal;HPM_P1;HPM_P2
2022/01/05 00:00:28;;;;;;;51.20;38.57;;;;;;;8.20;63.21;93983.41;4967128;28;20230;-76
2022/01/05 00:02:54;;;;;;;49.70;40.30;;;;;;;8.35;61.99;93978.84;4949960;29;20182;-76
2022/01/05 00:05:19;;;;;;;46.37;38.30;;;;;;;8.56;62.84;93982.31;4967448;29;20191;-77
2022/01/05 00:07:45;;;;;;;52.77;37.53;;;;;;;8.92;60.55;93968.91;4946412;29;20234;-77
2022/01/05 00:10:11;;;;;;;50.90;38.43;;;;;;;8.41;62.23;93966.81;4949593;29;20187;-76
2022/01/05 00:12:37;;;;;;;49.20;38.60;;;;;;;8.49;62.72;93964.03;4967239;29;20218;-77
2022/01/05 00:15:03;;;;;;;53.43;37.20;;;;;;;8.49;62.48;93976.28;4967091;29;20426;-77
2022/01/05 00:17:29;;;;;;;44.70;35.70;;;;;;;8.70;60.64;93967.50;4967381;29;20234;-77
2022/01/05 00:19:56;;;;;;;39.90;32.60;;;;;;;8.55;61.55;93975.47;4967497;29;20441;-76
2022/01/05 00:22:22;;;;;;;41.23;34.00;;;;;;;8.42;62.79;93965.81;4946909;29;20458;-77
2022/01/05 00:24:47;;;;;;;46.73;35.40;;;;;;;8.52;62.08;93968.88;4947611;29;20434;-77
2022/01/05 00:27:13;;;;;;;51.40;35.87;;;;;;;8.57;62.52;93973.47;4946610;29;20419;-76
2022/01/05 00:29:38;;;;;;;47.87;37.13;;;;;;;8.37;62.56;93960.41;4946216;29;20219;-77
2022/01/05 00:32:04;;;;;;;49.77;36.23;;;;;;;8.41;62.45;93974.63;4945529;29;20207;-76
2022/01/05 00:34:30;;;;;;;49.50;37.27;;;;;;;8.17;62.98;93973.34;4947436;29;20207;-76
2022/01/05 00:36:55;;;;;;;44.53;33.20;;;;;;;8.52;61.55;93966.25;4933271;29;20462;-76
2022/01/05 00:39:21;;;;;;;53.43;35.93;;;;;;;7.83;64.02;93977.66;4951290;29;20203;-75
2022/01/05 00:41:46;;;;;;;49.33;38.03;;;;;;;8.07;62.70;93983.38;4962789;29;20194;-76
2022/01/05 00:44:12;;;;;;;46.70;35.93;;;;;;;8.12;63.42;93981.78;4969928;29;20195;-76
2022/01/05 00:46:38;;;;;;;54.53;35.77;;;;;;;8.07;62.82;93972.94;4952735;29;20194;-76
2022/01/05 00:49:03;;;;;;;47.60;34.50;;;;;;;8.05;62.94;93980.94;4969709;29;20441;-75
2022/01/05 00:51:29;;;;;;;50.23;37.10;;;;;;;8.15;62.05;93980.56;4952469;29;20218;-75
2022/01/05 00:53:54;;;;;;;52.37;38.00;;;;;;;8.09;63.06;93963.13;4969833;29;20210;-75
2022/01/05 00:56:20;;;;;;;53.97;38.87;;;;;;;7.66;64.12;93971.94;4952571;29;20194;-75
2022/01/05 00:58:45;;;;;;;45.27;36.33;;;;;;;7.53;64.04;93967.50;4952278;29;20194;-76
2022/01/05 01:01:11;;;;;;;51.93;35.80;;;;;;;7.98;62.45;93959.28;4969390;28;20233;-75
2022/01/05 01:03:36;;;;;;;47.40;37.00;;;;;;;7.95;63.00;93950.06;4969937;29;20201;-74
2022/01/05 01:06:02;;;;;;;41.47;32.13;;;;;;;7.98;62.45;93956.66;4969640;29;20273;-74
2022/01/05 01:08:27;;;;;;;51.43;36.07;;;;;;;8.17;62.38;93947.31;4952325;29;20202;-76
2022/01/05 01:10:54;;;;;;;44.70;33.73;;;;;;;8.20;62.04;93952.13;4952064;29;20202;-75
2022/01/05 01:13:21;;;;;;;43.40;36.00;;;;;;;8.23;62.47;93951.72;4969143;29;20206;-75
2022/01/05 01:15:48;;;;;;;50.03;33.27;;;;;;;8.11;62.13;93955.91;4952009;29;20422;-75
2022/01/05 01:25:43;;;;;;;50.50;32.57;;;;;;;7.80;62.69;93957.22;4817935;29;20469;-76
2022/01/05 02:21:30;;;;;;;;;;;;;;;;;;;;;
2022/01/05 02:23:58;;;;;;;37.30;28.90;;;;;;;7.87;62.52;93925.97;4985955;28;20998;-79
2022/01/05 02:26:24;;;;;;;37.10;28.27;;;;;;;7.63;62.65;93930.69;4985960;28;20479;-79
2022/01/05 02:44:12;;;;;;;32.90;24.87;;;;;;;7.80;61.49;93905.13;4966914;29;20448;-79
2022/01/05 02:46:37;;;;;;;30.10;24.97;;;;;;;7.88;61.31;93911.97;4969235;29;20446;-79
2022/01/05 02:49:04;;;;;;;33.60;27.00;;;;;;;7.96;61.34;93909.97;4969226;29;20206;-80
2022/01/05 02:51:30;;;;;;;34.00;27.17;;;;;;;7.97;60.58;93898.56;4969347;29;20657;-80
2022/01/05 02:53:56;;;;;;;32.87;25.90;;;;;;;7.89;61.76;93896.13;4969179;29;20426;-80
2022/01/05 02:56:22;;;;;;;34.33;26.40;;;;;;;8.10;60.65;93894.38;4967836;29;20434;-80
2022/01/05 02:58:47;;;;;;;32.83;25.17;;;;;;;7.99;61.33;93887.94;4967714;28;20510;-80
2022/01/05 03:01:13;;;;;;;34.57;27.60;;;;;;;7.66;62.17;93903.47;4957271;29;20219;-79
2022/01/05 03:03:38;;;;;;;31.10;24.10;;;;;;;7.71;62.02;93890.66;4948826;29;20187;-79
2022/01/05 03:06:04;;;;;;;38.33;26.57;;;;;;;7.88;60.89;93902.34;4948985;29;20183;-79
2022/01/05 03:08:29;;;;;;;40.03;27.00;;;;;;;7.96;61.63;93903.97;4948917;29;20616;-79
2022/01/05 03:10:55;;;;;;;33.73;27.47;;;;;;;7.91;61.11;93901.13;4948711;29;20179;-79
2022/01/05 03:13:23;;;;;;;30.97;25.77;;;;;;;7.76;61.23;93896.91;4947472;29;20211;-79
2022/01/05 03:15:49;;;;;;;38.50;26.30;;;;;;;7.71;62.20;93895.88;4931668;29;20187;-79
2022/01/05 03:18:14;;;;;;;32.33;25.47;;;;;;;8.29;59.82;93890.19;4948877;29;20427;-80
2022/01/05 03:20:40;;;;;;;35.03;27.77;;;;;;;7.04;64.04;93895.56;4948511;29;20518;-80
2022/01/05 03:23:05;;;;;;;35.33;26.20;;;;;;;7.90;60.88;93884.72;4931833;29;20207;-80
2022/01/05 03:25:31;;;;;;;35.00;26.30;;;;;;;8.10;60.68;93899.56;4947531;29;20179;-79
2022/01/05 03:27:56;;;;;;;34.77;26.20;;;;;;;7.07;63.40;93896.97;4949831;29;20191;-79
2022/01/05 03:30:26;;;;;;;36.73;25.90;;;;;;;7.20;62.40;93905.63;4966521;28;20198;-79
2022/01/05 03:35:24;;;;;;;37.23;27.60;;;;;;;7.63;61.83;93889.84;4986779;28;20526;-79
2022/01/05 03:37:50;;;;;;;36.30;24.83;;;;;;;7.66;62.44;93890.44;4970079;28;20520;-80
2022/01/05 03:40:15;;;;;;;27.93;23.40;;;;;;;7.76;62.08;93885.69;4987487;28;20208;-79
2022/01/05 03:42:41;;;;;;;33.40;25.07;;;;;;;7.55;61.82;93886.59;4987380;28;20169;-80
2022/01/05 03:45:07;;;;;;;32.73;24.77;;;;;;;7.62;62.42;93875.19;4986417;28;20181;-78
2022/01/05 03:47:32;;;;;;;37.23;27.23;;;;;;;7.78;60.56;93888.91;4986754;28;20190;-78
2022/01/05 03:49:58;;;;;;;38.13;26.23;;;;;;;7.09;63.50;93893.16;4986254;28;20445;-79
2022/01/05 03:52:23;;;;;;;31.07;24.50;;;;;;;7.78;61.94;93883.69;4986531;28;20212;-79
2022/01/05 03:54:49;;;;;;;33.50;23.60;;;;;;;7.87;60.42;93879.09;4968153;28;20557;-79
2022/01/05 03:57:15;;;;;;;28.20;21.73;;;;;;;8.12;60.11;93881.94;4986952;28;20186;-81
2022/01/05 03:59:40;;;;;;;30.20;23.80;;;;;;;7.85;61.03;93879.28;4986846;28;20177;-79
2022/01/05 04:02:06;;;;;;;31.57;22.87;;;;;;;7.53;62.45;93889.41;4986615;28;20209;-81
2022/01/05 04:04:32;;;;;;;28.33;23.77;;;;;;;7.93;61.87;93883.50;4987010;28;20328;-80
2022/01/05 04:06:57;;;;;;;30.67;23.67;;;;;;;7.77;60.79;93888.06;4987198;28;20200;-81
2022/01/05 04:09:23;;;;;;;32.73;24.07;;;;;;;7.75;62.19;93874.44;4987112;28;20413;-80
2022/01/05 04:11:48;;;;;;;30.30;23.70;;;;;;;7.74;61.73;93874.63;4972059;28;20345;-81
2022/01/05 04:14:13;;;;;;;30.50;24.00;;;;;;;7.86;60.70;93867.88;4990874;28;20182;-80
2022/01/05 04:16:39;;;;;;;27.60;21.80;;;;;;;7.97;60.23;93859.47;4973329;28;20185;-79
2022/01/05 04:19:04;;;;;;;30.27;21.17;;;;;;;8.04;59.68;93861.28;4991217;28;20190;-80
2022/01/05 04:21:30;;;;;;;28.00;22.30;;;;;;;7.46;61.76;93870.34;4991062;28;20233;-80
2022/01/05 04:23:55;;;;;;;33.27;21.30;;;;;;;7.65;61.82;93878.44;4977030;28;20281;-80
2022/01/05 04:26:21;;;;;;;29.97;20.47;;;;;;;7.95;60.70;93869.31;4989034;28;20189;-81
2022/01/05 04:28:46;;;;;;;32.40;24.17;;;;;;;7.58;61.53;93855.75;4975863;28;20193;-78
2022/01/05 04:31:12;;;;;;;30.07;19.60;;;;;;;7.21;62.59;93865.63;4989758;28;20236;-80
2022/01/05 04:33:37;;;;;;;27.33;20.60;;;;;;;7.75;61.31;93855.41;4990075;28;20257;-80
2022/01/05 04:36:03;;;;;;;25.13;18.97;;;;;;;7.04;63.81;93870.34;4988645;28;20189;-79
2022/01/05 04:38:28;;;;;;;26.37;18.93;;;;;;;7.42;63.05;93874.34;4989880;28;20656;-79
2022/01/05 04:40:54;;;;;;;23.00;19.53;;;;;;;7.30;62.68;93865.47;4989673;28;20186;-79
2022/01/05 04:43:20;;;;;;;19.00;17.07;;;;;;;7.43;62.84;93875.94;4989332;28;20272;-79
2022/01/05 04:45:47;;;;;;;24.30;17.33;;;;;;;7.55;61.69;93883.97;4989070;28;20439;-79
2022/01/05 04:48:13;;;;;;;22.27;17.63;;;;;;;7.18;62.53;93870.41;4988960;28;20625;-80
2022/01/05 04:50:39;;;;;;;26.90;19.17;;;;;;;7.23;62.12;93884.44;4974395;28;20436;-79
2022/01/05 04:53:04;;;;;;;26.33;19.63;;;;;;;7.40;62.36;93878.94;4973183;28;20234;-79
2022/01/05 04:55:29;;;;;;;24.30;20.40;;;;;;;7.37;62.00;93887.13;4975216;28;20494;-79
2022/01/05 04:57:55;;;;;;;22.17;18.10;;;;;;;7.46;61.77;93880.75;4971381;28;20194;-79
2022/01/05 05:00:20;;;;;;;26.87;19.10;;;;;;;7.33;62.61;93881.50;4957162;28;20189;-80
2022/01/05 05:02:48;;;;;;;22.57;19.67;;;;;;;7.26;63.29;93892.88;4952301;29;20187;-79
2022/01/05 05:05:14;;;;;;;20.93;17.90;;;;;;;7.58;61.63;93891.41;4952587;29;20183;-78
2022/01/05 05:07:39;;;;;;;29.57;20.60;;;;;;;7.48;61.60;93891.78;4968799;29;20999;-79
2022/01/05 05:10:05;;;;;;;23.50;19.50;;;;;;;7.59;62.18;93899.03;4952048;28;20178;-80
2022/01/05 05:12:30;;;;;;;24.23;19.53;;;;;;;7.57;61.79;93900.22;4967262;29;20234;-80
2022/01/05 05:14:56;;;;;;;28.60;18.30;;;;;;;7.07;62.63;93910.78;4967710;29;20235;-79
2022/01/05 05:17:21;;;;;;;19.87;14.80;;;;;;;7.16;63.54;93898.44;4951816;29;20193;-80
2022/01/05 05:19:47;;;;;;;28.70;18.00;;;;;;;7.34;62.88;93897.91;4969249;29;20181;-80
2022/01/05 05:22:12;;;;;;;27.30;19.87;;;;;;;6.76;63.57;93909.38;4968877;28;20190;-80
2022/01/05 05:24:37;;;;;;;27.97;19.60;;;;;;;7.24;62.85;93912.06;4971215;28;20178;-81
2022/01/05 05:27:03;;;;;;;29.37;19.77;;;;;;;7.27;63.44;93915.31;4988658;28;20189;-80
2022/01/05 05:29:29;;;;;;;26.60;22.80;;;;;;;6.77;64.34;93920.56;4988161;28;20196;-80
2022/01/05 05:31:54;;;;;;;26.33;19.70;;;;;;;7.32;62.62;93916.34;4987664;28;20281;-80
2022/01/05 05:34:20;;;;;;;28.90;20.30;;;;;;;7.78;60.83;93907.91;4988204;28;20177;-80
2022/01/05 05:36:45;;;;;;;26.10;20.17;;;;;;;7.31;62.47;93924.34;4987444;28;20185;-81
2022/01/05 05:39:11;;;;;;;29.40;22.20;;;;;;;7.36;63.18;93919.34;4989181;28;20189;-81
2022/01/05 05:41:37;;;;;;;29.97;21.70;;;;;;;7.28;62.85;93920.28;4988493;28;20224;-79
2022/01/05 05:44:03;;;;;;;28.50;21.50;;;;;;;7.59;62.12;93914.66;4970558;28;20987;-81
2022/01/05 05:46:28;;;;;;;25.50;20.63;;;;;;;7.91;60.93;93917.59;4988235;28;20429;-81
2022/01/05 05:48:54;;;;;;;27.40;20.73;;;;;;;7.99;60.36;93912.19;4971146;28;20177;-80
2022/01/05 05:51:19;;;;;;;27.53;20.90;;;;;;;7.21;62.52;93920.28;4987962;28;20198;-80
2022/01/05 05:53:44;;;;;;;25.07;21.60;;;;;;;7.41;62.55;93922.16;4987606;28;20182;-80
2022/01/05 05:56:10;;;;;;;30.53;23.10;;;;;;;7.22;62.72;93916.66;4988545;28;20178;-80
2022/01/05 05:58:35;;;;;;;30.03;22.63;;;;;;;7.14;62.78;93921.22;4987724;28;20669;-81
2022/01/05 06:01:01;;;;;;;29.90;23.57;;;;;;;7.47;62.86;93916.19;4965389;29;20190;-80
2022/01/05 06:03:26;;;;;;;29.77;23.17;;;;;;;7.62;61.55;93919.47;4968591;29;20174;-80
2022/01/05 06:05:52;;;;;;;29.53;22.50;;;;;;;7.14;62.49;93911.63;4971300;28;20182;-80
2022/01/05 06:08:18;;;;;;;33.93;25.17;;;;;;;6.73;64.81;93914.13;4950942;29;20193;-80
2022/01/05 06:10:44;;;;;;;36.77;24.43;;;;;;;6.91;64.54;93922.28;4967971;28;20288;-81
2022/01/05 06:13:09;;;;;;;35.80;24.87;;;;;;;7.09;63.34;93918.38;4980888;28;20465;-80
2022/01/05 06:15:35;;;;;;;28.60;22.93;;;;;;;7.29;63.36;93921.91;4970586;28;20537;-80
2022/01/05 06:18:01;;;;;;;36.70;24.73;;;;;;;7.39;62.87;93924.97;4987670;28;20189;-81
2022/01/05 06:20:26;;;;;;;29.47;24.30;;;;;;;7.62;62.87;93927.25;4987137;28;20193;-79
2022/01/05 06:22:51;;;;;;;29.20;24.53;;;;;;;8.10;60.39;93928.22;4969733;28;20212;-80
2022/01/05 06:25:17;;;;;;;33.83;24.07;;;;;;;7.99;60.72;93932.22;4970141;28;20268;-80
2022/01/05 06:27:42;;;;;;;30.70;23.80;;;;;;;7.62;61.23;93937.69;4970366;28;20193;-80
2022/01/05 06:30:09;;;;;;;32.80;25.90;;;;;;;7.54;61.41;93947.47;4970740;28;20188;-80
2022/01/05 06:32:40;;;;;;;34.17;24.70;;;;;;;7.68;62.34;93945.72;4970603;28;20201;-80
2022/01/05 06:35:06;;;;;;;29.93;24.43;;;;;;;7.69;61.89;93940.31;4968729;28;20429;-80
2022/01/05 06:37:31;;;;;;;29.70;24.33;;;;;;;8.17;60.49;93926.47;4988050;28;20536;-80
2022/01/05 06:39:57;;;;;;;40.93;25.13;;;;;;;8.18;59.56;93930.69;4985383;28;20657;-81
2022/01/05 06:42:22;;;;;;;32.83;24.20;;;;;;;7.94;61.29;93935.41;4987804;28;20180;-81
2022/01/05 06:44:48;;;;;;;29.60;25.30;;;;;;;8.06;60.23;93951.28;4987725;28;20174;-80
2022/01/05 06:47:13;;;;;;;35.00;25.97;;;;;;;7.84;61.21;93940.19;4987855;28;20184;-81
2022/01/05 06:49:39;;;;;;;38.27;27.50;;;;;;;7.95;61.69;93947.44;4987663;28;20189;-80
2022/01/05 06:52:04;;;;;;;39.67;27.97;;;;;;;8.13;61.25;93938.28;4987716;28;20221;-81
2022/01/05 06:54:30;;;;;;;31.47;27.97;;;;;;;7.78;62.04;93940.97;4987734;28;20186;-81
2022/01/05 06:56:56;;;;;;;35.20;28.43;;;;;;;8.18;60.99;93936.69;4987071;28;20597;-81
2022/01/05 06:59:21;;;;;;;32.10;28.00;;;;;;;8.06;61.54;93940.84;4987297;28;20186;-81
2022/01/05 07:01:47;;;;;;;35.90;27.70;;;;;;;8.57;59.31;93936.97;4986363;28;20445;-79
2022/01/05 07:04:13;;;;;;;35.70;27.30;;;;;;;8.18;60.91;93938.50;4964730;28;20174;-80
2022/01/05 07:06:39;;;;;;;32.83;28.07;;;;;;;8.12;60.55;93936.66;4969969;28;20201;-80
2022/01/05 07:09:05;;;;;;;33.77;27.60;;;;;;;8.25;60.83;93936.69;4969900;28;20424;-80
2022/01/05 07:11:32;;;;;;;43.30;27.07;;;;;;;8.72;58.99;93934.97;4987205;28;20217;-80
2022/01/05 07:13:58;;;;;;;40.13;27.40;;;;;;;8.51;59.93;93937.78;4969456;28;20440;-80
2022/01/05 07:16:24;;;;;;;34.93;29.07;;;;;;;8.25;61.21;93930.69;4968034;28;20429;-81
2022/01/05 07:18:52;;;;;;;50.63;35.20;;;;;;;8.29;60.33;93934.50;4987435;28;20417;-80
2022/01/05 07:21:18;;;;;;;45.10;31.87;;;;;;;8.53;60.53;93930.56;4986204;28;20731;-81
2022/01/05 07:23:44;;;;;;;42.73;31.27;;;;;;;8.89;60.05;93929.38;4986971;28;20500;-80
2022/01/05 07:26:09;;;;;;;42.77;30.93;;;;;;;8.86;59.35;93940.19;4986636;28;20505;-80
2022/01/05 07:28:35;;;;;;;45.13;31.50;;;;;;;8.75;60.32;93939.81;4986723;28;20201;-80
2022/01/05 07:31:00;;;;;;;53.53;32.80;;;;;;;8.95;59.80;93939.00;4969273;28;20276;-80
2022/01/05 07:33:26;;;;;;;49.60;31.33;;;;;;;9.18;58.34;93939.38;4986066;28;20224;-80
2022/01/05 07:35:52;;;;;;;40.17;30.83;;;;;;;9.09;59.51;93935.38;4985760;28;20181;-80
2022/01/05 07:38:18;;;;;;;44.90;29.10;;;;;;;9.77;56.54;93940.25;4987038;28;21000;-80
2022/01/05 07:40:43;;;;;;;45.63;28.87;;;;;;;9.03;58.84;93949.25;4987639;28;20425;-80
2022/01/05 07:43:09;;;;;;;44.60;29.50;;;;;;;9.29;58.47;93939.75;4987430;28;20193;-80
2022/01/05 07:45:37;;;;;;;50.17;29.47;;;;;;;9.51;58.14;93940.31;4986196;28;20192;-81
2022/01/05 07:48:06;;;;;;;45.13;27.10;;;;;;;9.60;57.21;93946.94;4987093;28;20197;-80
2022/01/05 07:50:32;;;;;;;41.77;27.20;;;;;;;9.68;56.64;93946.69;4969462;28;20437;-81
2022/01/05 07:53:01;;;;;;;44.70;28.50;;;;;;;9.75;56.87;93944.06;4986207;28;20496;-80
2022/01/05 07:55:27;;;;;;;27.17;22.80;;;;;;;9.73;56.74;93946.06;4986232;28;20413;-80
2022/01/05 07:57:53;;;;;;;26.23;22.23;;;;;;;10.02;55.93;93943.97;4986543;28;20505;-81
2022/01/05 08:00:18;;;;;;;38.13;21.80;;;;;;;10.03;56.26;93943.75;4986746;28;20421;-80
2022/01/05 08:02:44;;;;;;;25.40;21.10;;;;;;;9.72;56.70;93945.28;4968920;28;20186;-81
2022/01/05 08:05:09;;;;;;;28.83;22.77;;;;;;;10.07;56.05;93944.13;4985862;28;20178;-80
2022/01/05 08:07:35;;;;;;;26.20;20.73;;;;;;;10.12;56.02;93947.72;4948628;29;20201;-80
2022/01/05 08:10:00;;;;;;;26.00;20.60;;;;;;;10.29;55.23;93955.09;4948504;29;20222;-81
2022/01/05 08:12:26;;;;;;;23.60;20.93;;;;;;;10.22;55.63;93954.31;4976185;28;20189;-80
2022/01/05 08:14:51;;;;;;;28.73;22.77;;;;;;;10.27;55.01;93947.44;4986292;28;20181;-81
2022/01/05 08:17:18;;;;;;;29.90;22.10;;;;;;;9.91;55.46;93951.44;4974998;28;20229;-81
2022/01/05 08:19:44;;;;;;;27.50;22.23;;;;;;;10.25;55.22;93952.09;4986368;28;20242;-81
2022/01/05 08:22:09;;;;;;;25.90;21.00;;;;;;;10.03;55.35;93950.78;4985409;28;20940;-80
2022/01/05 08:24:35;;;;;;;32.87;21.63;;;;;;;10.40;55.02;93948.44;4986435;28;20305;-80
2022/01/05 08:27:00;;;;;;;22.13;19.97;;;;;;;10.51;54.41;93937.31;4986363;28;20174;-81
2022/01/05 08:29:26;;;;;;;22.87;20.43;;;;;;;10.66;54.47;93945.66;4986687;28;20229;-80
2022/01/05 08:31:51;;;;;;;24.37;18.77;;;;;;;10.80;53.22;93935.09;4985323;28;20277;-80
2022/01/05 08:34:20;;;;;;;26.80;20.80;;;;;;;10.77;53.88;93935.50;4986938;28;20188;-81
2022/01/05 08:36:49;;;;;;;27.57;20.33;;;;;;;10.85;53.62;93943.91;4985344;28;20182;-81
2022/01/05 08:39:15;;;;;;;31.20;22.07;;;;;;;10.89;53.11;93947.69;4985526;28;20497;-81
2022/01/05 08:41:41;;;;;;;26.20;21.00;;;;;;;10.91;53.18;93945.66;4985525;28;20414;-80
2022/01/05 08:44:06;;;;;;;24.67;19.50;;;;;;;10.74;53.25;93937.53;4987048;28;20420;-80
2022/01/05 08:46:32;;;;;;;28.77;22.60;;;;;;;10.87;53.58;93943.66;4984857;28;20632;-81
2022/01/05 08:48:57;;;;;;;32.93;23.73;;;;;;;10.91;53.30;93932.56;4986372;28;20175;-81
2022/01/05 08:51:23;;;;;;;32.63;24.30;;;;;;;10.69;53.62;93945.22;4984881;28;20181;-81
2022/01/05 08:53:48;;;;;;;34.70;28.63;;;;;;;10.90;52.95;93941.44;4985060;28;20174;-80
2022/01/05 08:56:13;;;;;;;30.13;25.73;;;;;;;11.09;52.43;93947.50;4984982;28;20668;-80
2022/01/05 08:58:39;;;;;;;32.17;26.90;;;;;;;11.22;52.59;93928.28;4988657;28;20205;-80
2022/01/05 09:01:05;;;;;;;39.57;28.73;;;;;;;11.42;52.11;93935.94;4989345;28;20186;-79
2022/01/05 09:03:31;;;;;;;28.13;24.10;;;;;;;11.34;51.68;93928.34;4988252;28;20182;-80
2022/01/05 09:05:56;;;;;;;31.13;27.10;;;;;;;11.32;51.85;93936.47;4981594;28;20451;-80
2022/01/05 09:08:22;;;;;;;29.97;25.27;;;;;;;11.51;51.55;93931.22;4969034;29;20254;-80
2022/01/05 09:10:47;;;;;;;30.40;24.37;;;;;;;11.46;51.19;93929.25;4970317;29;20175;-80
2022/01/05 09:13:13;;;;;;;43.57;27.50;;;;;;;11.74;51.26;93922.69;4968523;28;20214;-80
2022/01/05 09:15:40;;;;;;;25.80;23.03;;;;;;;11.73;50.79;93918.47;4973032;28;20190;-79
2022/01/05 09:18:05;;;;;;;24.93;21.30;;;;;;;11.93;50.62;93920.09;4987885;28;20704;-80
2022/01/05 09:20:31;;;;;;;30.63;21.23;;;;;;;11.99;50.16;93914.78;4989342;28;20501;-80
2022/01/05 09:22:56;;;;;;;25.80;18.70;;;;;;;12.22;49.52;93900.16;4989242;28;20169;-80
2022/01/05 09:25:23;;;;;;;25.03;17.73;;;;;;;12.19;48.94;93901.41;4984792;28;20229;-80
2022/01/05 09:27:50;;;;;;;23.27;16.70;;;;;;;12.20;51.11;93897.75;4969543;28;20174;-80
2022/01/05 09:30:17;;;;;;;16.70;13.80;;;;;;;11.85;49.74;93895.75;4968549;29;20441;-80
2022/01/05 09:32:43;;;;;;;18.70;15.00;;;;;;;12.34;48.58;93892.34;4968681;29;20466;-80
2022/01/05 09:35:12;;;;;;;21.20;13.97;;;;;;;12.23;48.15;93889.44;4970031;28;20410;-81
2022/01/05 09:37:50;;;;;;;19.73;13.53;;;;;;;12.46;48.89;93885.28;4983485;28;20469;-80
2022/01/05 09:43:00;;;;;;;14.23;11.83;;;;;;;12.27;48.69;93872.25;4989354;28;20389;-80
2022/01/05 09:45:28;;;;;;;17.90;12.63;;;;;;;13.00;46.51;93869.50;4989011;28;21092;-80
2022/01/05 09:48:12;;;;;;;14.67;11.90;;;;;;;12.50;47.98;93868.88;4988738;28;20433;-80
2022/01/05 09:50:47;;;;;;;17.80;12.60;;;;;;;13.05;46.49;93862.53;4985680;28;20488;-81
2022/01/05 09:53:13;;;;;;;15.53;11.63;;;;;;;13.10;46.40;93869.72;4987489;28;20455;-81
2022/01/05 09:55:39;;;;;;;13.83;11.87;;;;;;;14.14;45.33;93861.06;4988015;28;20513;-81
2022/01/05 09:58:05;;;;;;;16.90;12.30;;;;;;;13.85;44.38;93860.25;4988702;28;20448;-80
2022/01/05 10:00:30;;;;;;;14.33;12.80;;;;;;;14.00;44.21;93846.56;4988154;28;20268;-81
2022/01/05 10:02:56;;;;;;;19.63;12.77;;;;;;;14.48;44.30;93845.31;4988485;28;20252;-81
2022/01/05 10:05:21;;;;;;;19.97;13.23;;;;;;;14.87;42.19;93849.91;4987455;28;20478;-81
2022/01/05 10:07:47;;;;;;;15.00;13.00;;;;;;;15.07;42.64;93841.50;4986984;28;20188;-80
2022/01/05 10:10:13;;;;;;;15.33;12.23;;;;;;;14.70;42.87;93844.63;4986375;28;20181;-81
2022/01/05 10:12:39;;;;;;;15.67;11.80;;;;;;;15.13;42.22;93843.19;4988029;28;20269;-80
2022/01/05 10:15:05;;;;;;;18.13;12.83;;;;;;;15.73;41.54;93839.75;4986097;28;20512;-80
2022/01/05 10:17:36;;;;;;;17.20;12.90;;;;;;;16.07;40.52;93834.34;4988280;28;20201;-80
2022/01/05 10:20:07;;;;;;;17.17;12.33;;;;;;;16.49;39.60;93823.09;4987700;28;20509;-80
2022/01/05 10:22:43;;;;;;;11.60;10.50;;;;;;;15.23;40.71;93830.13;4988389;28;20456;-80
2022/01/05 10:25:20;;;;;;;14.77;11.87;;;;;;;15.00;41.30;93824.00;4970290;28;20443;-82
2022/01/05 10:28:00;;;;;;;17.07;12.47;;;;;;;16.15;40.59;93822.53;4988114;28;20432;-81
2022/01/05 10:30:34;;;;;;;13.13;10.17;;;;;;;16.29;39.26;93810.50;4987597;28;20440;-80
2022/01/05 10:33:01;;;;;;;13.73;10.60;;;;;;;16.50;38.38;93808.06;4987792;28;20553;-81
2022/01/05 10:35:27;;;;;;;15.67;11.20;;;;;;;16.77;38.68;93803.53;4987975;28;20447;-81
2022/01/05 10:37:57;;;;;;;12.50;10.53;;;;;;;16.81;37.55;93801.16;4987428;28;20745;-82
2022/01/05 10:40:22;;;;;;;13.73;11.93;;;;;;;16.76;38.43;93806.41;4985209;28;20505;-80
2022/01/05 10:42:53;;;;;;;12.20;11.00;;;;;;;17.13;37.75;93795.03;4970078;28;20465;-81
2022/01/05 10:45:22;;;;;;;16.43;10.80;;;;;;;17.47;36.69;93784.09;4986644;28;20758;-81
2022/01/05 10:50:29;;;;;;;18.67;11.77;;;;;;;18.26;35.79;93775.06;4985384;28;20487;-81
2022/01/05 10:52:56;;;;;;;23.53;11.10;;;;;;;18.83;34.32;93773.22;4970164;28;20448;-82
2022/01/05 10:55:24;;;;;;;15.90;11.03;;;;;;;18.36;35.63;93782.22;4987351;28;20190;-81
2022/01/05 10:57:59;;;;;;;14.10;11.30;;;;;;;18.06;35.66;93765.25;4987557;28;20453;-81
2022/01/05 11:00:41;;;;;;;12.43;10.40;;;;;;;17.54;36.33;93769.56;4987574;28;20464;-81
2022/01/05 11:03:25;;;;;;;12.40;10.13;;;;;;;17.22;36.24;93753.84;4967979;29;20450;-81
2022/01/05 11:06:06;;;;;;;14.53;9.63;;;;;;;17.86;36.20;93765.22;4968012;29;20418;-81
2022/01/05 11:08:33;;;;;;;13.10;9.80;;;;;;;18.17;35.54;93759.97;4968404;29;20441;-81
2022/01/05 11:10:58;;;;;;;21.93;10.43;;;;;;;17.63;35.87;93767.22;4968061;29;20522;-81
2022/01/05 11:13:27;;;;;;;14.70;9.67;;;;;;;17.48;35.86;93761.88;4968217;28;20481;-81
2022/01/05 11:15:57;;;;;;;9.93;8.93;;;;;;;17.20;36.78;93752.50;4986519;28;20269;-81
2022/01/05 11:18:23;;;;;;;9.67;8.03;;;;;;;17.15;37.14;93750.66;4986997;28;20417;-81
2022/01/05 11:20:52;;;;;;;11.60;8.10;;;;;;;17.33;36.42;93747.53;4986209;28;20429;-81
2022/01/05 11:23:23;;;;;;;9.13;8.20;;;;;;;17.86;35.74;93738.75;4986914;28;20177;-81
2022/01/05 11:25:50;;;;;;;7.30;6.37;;;;;;;17.70;35.33;93730.75;4977794;28;20791;-81
2022/01/05 11:28:17;;;;;;;10.60;8.43;;;;;;;17.62;35.89;93727.81;4987341;28;20420;-81
2022/01/05 11:30:45;;;;;;;11.60;9.73;;;;;;;17.59;36.66;93712.47;4987253;28;20940;-81
2022/01/05 11:33:11;;;;;;;12.60;10.33;;;;;;;18.26;35.60;93723.94;4985724;28;20546;-81
2022/01/05 11:35:38;;;;;;;11.67;9.63;;;;;;;18.33;35.36;93724.50;4987162;28;20915;-80
2022/01/05 11:38:05;;;;;;;9.97;8.97;;;;;;;18.05;35.72;93716.00;4986891;28;20473;-81
2022/01/05 11:40:31;;;;;;;14.47;10.43;;;;;;;18.18;36.23;93717.34;4985955;28;20421;-80
2022/01/05 11:43:01;;;;;;;9.00;7.33;;;;;;;17.23;36.64;93710.50;4986102;28;20456;-80
2022/01/05 11:45:47;;;;;;;13.13;9.70;;;;;;;17.92;35.56;93705.91;4985920;28;20507;-80
2022/01/05 11:48:28;;;;;;;14.10;8.60;;;;;;;17.03;37.45;93699.81;4994808;28;20989;-81
2022/01/05 11:50:58;;;;;;;13.40;8.90;;;;;;;17.51;36.25;93706.63;4984365;28;20417;-81
2022/01/05 11:53:38;;;;;;;9.20;7.80;;;;;;;16.90;37.73;93696.59;4986117;28;20491;-81
2022/01/05 11:56:07;;;;;;;10.10;7.80;;;;;;;16.40;38.82;93687.28;4986039;28;20979;-80
2022/01/05 11:58:34;;;;;;;15.83;9.80;;;;;;;16.99;38.16;93683.69;4985403;28;20432;-81
2022/01/05 12:01:18;;;;;;;14.97;8.87;;;;;;;17.74;36.83;93673.59;4986684;28;20540;-80
2022/01/05 12:03:58;;;;;;;11.93;7.67;;;;;;;17.14;37.15;93691.66;4986271;28;20429;-80
2022/01/05 12:06:24;;;;;;;9.10;7.73;;;;;;;16.99;38.02;93673.09;4982672;28;20487;-80
2022/01/05 12:08:55;;;;;;;7.17;6.47;;;;;;;16.38;38.79;93690.19;4984673;28;20804;-80
2022/01/05 12:11:38;;;;;;;9.93;8.60;;;;;;;16.98;38.13;93677.59;4986233;28;20468;-80
2022/01/05 12:14:30;;;;;;;10.17;7.70;;;;;;;17.53;37.10;93674.63;4986648;28;20433;-81
2022/01/05 12:17:01;;;;;;;8.57;6.83;;;;;;;17.65;36.47;93679.66;4982226;28;20448;-81
2022/01/05 12:19:32;;;;;;;9.90;7.80;;;;;;;17.60;36.54;93667.19;4984105;28;20443;-81
2022/01/05 12:22:01;;;;;;;13.10;7.90;;;;;;;17.86;35.91;93675.22;4983975;28;20437;-81
2022/01/05 12:24:54;;;;;;;6.60;6.00;;;;;;;17.06;37.50;93670.25;4984741;28;20587;-80
2022/01/05 12:27:25;;;;;;;9.40;7.10;;;;;;;16.38;38.72;93669.06;4986141;28;20408;-81
2022/01/05 12:29:52;;;;;;;8.60;7.70;;;;;;;16.30;39.27;93658.97;4986035;28;20433;-81
2022/01/05 12:32:46;;;;;;;15.70;8.87;;;;;;;16.46;39.33;93654.59;4987159;28;20842;-80
2022/01/05 12:35:15;;;;;;;14.93;9.47;;;;;;;16.74;38.73;93657.91;4978274;28;20443;-81
2022/01/05 12:37:49;;;;;;;12.90;8.20;;;;;;;16.91;37.53;93655.13;4973331;28;20432;-81
2022/01/05 12:40:36;;;;;;;9.30;7.53;;;;;;;15.72;40.63;93642.94;4974576;28;20436;-80
2022/01/05 12:43:08;;;;;;;9.57;8.60;;;;;;;15.95;40.04;93643.69;4988924;28;20816;-80
2022/01/05 12:46:00;;;;;;;14.37;8.30;;;;;;;15.70;40.84;93646.88;4977266;28;20435;-81
2022/01/05 12:51:17;;;;;;;10.03;7.40;;;;;;;16.07;40.16;93646.94;4989773;28;20453;-81